sensor_id;sensor_type;location;lat;lon;timestamp;P1;durP1;ratioP1;P2;durP2;ratioP2
70588;SDS011;58152;49.202;18.744;2023-04-12T00:00:37;1.73;;;1.45;;
70588;SDS011;58152;49.202;18.744;2023-04-12T00:03:09;1.67;;;1.58;;
70588;SDS011;58152;49.202;18.744;2023-04-12T00:05:38;2.30;;;1.60;;
70588;SDS011;58152;49.202;18.744;2023-04-12T00:08:26;3.10;;;1.80;;
70588;SDS011;58152;49.202;18.744;2023-04-12T00:11:06;1.95;;;1.60;;
70588;SDS011;58152;49.202;18.744;2023-04-12T00:13:41;2.15;;;1.70;;
70588;SDS011;58152;49.202;18.744;2023-04-12T00:16:27;4.10;;;1.48;;
70588;SDS011;58152;49.202;18.744;2023-04-12T00:19:00;2.13;;;1.60;;
70588;SDS011;58152;49.202;18.744;2023-04-12T00:21:38;1.95;;;1.50;;
70588;SDS011;58152;49.202;18.744;2023-04-12T00:24:04;2.17;;;1.52;;
70588;SDS011;58152;49.202;18.744;2023-04-12T00:26:33;1.40;;;1.30;;
70588;SDS011;58152;49.202;18.744;2023-04-12T00:29:01;1.35;;;1.25;;
70588;SDS011;58152;49.202;18.744;2023-04-12T00:31:31;1.98;;;1.55;;
70588;SDS011;58152;49.202;18.744;2023-04-12T00:34:26;2.20;;;1.35;;
70588;SDS011;58152;49.202;18.744;2023-04-12T00:37:15;1.55;;;1.30;;
70588;SDS011;58152;49.202;18.744;2023-04-12T00:39:41;2.28;;;1.38;;
70588;SDS011;58152;49.202;18.744;2023-04-12T00:42:18;1.55;;;1.40;;
70588;SDS011;58152;49.202;18.744;2023-04-12T00:44:46;3.42;;;1.73;;
70588;SDS011;58152;49.202;18.744;2023-04-12T00:47:18;1.70;;;1.40;;
70588;SDS011;58152;49.202;18.744;2023-04-12T00:49:44;1.73;;;1.63;;
70588;SDS011;58152;49.202;18.744;2023-04-12T00:52:17;2.47;;;1.60;;
70588;SDS011;58152;49.202;18.744;2023-04-12T00:54:43;1.95;;;1.45;;
70588;SDS011;58152;49.202;18.744;2023-04-12T00:57:14;1.73;;;1.30;;
70588;SDS011;58152;49.202;18.744;2023-04-12T00:59:40;1.67;;;1.30;;
70588;SDS011;58152;49.202;18.744;2023-04-12T01:02:12;1.75;;;1.30;;
70588;SDS011;58152;49.202;18.744;2023-04-12T01:05:17;1.58;;;1.25;;
70588;SDS011;58152;49.202;18.744;2023-04-12T01:17:31;1.63;;;1.10;;
70588;SDS011;58152;49.202;18.744;2023-04-12T01:32:52;2.40;;;1.60;;
70588;SDS011;58152;49.202;18.744;2023-04-12T01:35:41;1.27;;;1.17;;
70588;SDS011;58152;49.202;18.744;2023-04-12T01:41:57;1.60;;;1.25;;
70588;SDS011;58152;49.202;18.744;2023-04-12T01:44:26;1.52;;;1.40;;
70588;SDS011;58152;49.202;18.744;2023-04-12T01:47:01;1.45;;;1.15;;
70588;SDS011;58152;49.202;18.744;2023-04-12T01:49:58;2.90;;;1.20;;
70588;SDS011;58152;49.202;18.744;2023-04-12T01:55:57;1.92;;;1.73;;
70588;SDS011;58152;49.202;18.744;2023-04-12T01:58:49;3.27;;;1.63;;
70588;SDS011;58152;49.202;18.744;2023-04-12T02:01:22;2.33;;;1.70;;
70588;SDS011;58152;49.202;18.744;2023-04-12T02:03:56;2.20;;;1.40;;
70588;SDS011;58152;49.202;18.744;2023-04-12T02:06:31;1.40;;;1.30;;
70588;SDS011;58152;49.202;18.744;2023-04-12T02:09:15;1.42;;;1.15;;
70588;SDS011;58152;49.202;18.744;2023-04-12T02:11:57;1.50;;;1.35;;
70588;SDS011;58152;49.202;18.744;2023-04-12T02:15:09;1.27;;;1.17;;
70588;SDS011;58152;49.202;18.744;2023-04-12T02:20:44;1.92;;;1.20;;
70588;SDS011;58152;49.202;18.744;2023-04-12T02:23:14;1.35;;;1.20;;
70588;SDS011;58152;49.202;18.744;2023-04-12T02:25:54;1.95;;;1.20;;
70588;SDS011;58152;49.202;18.744;2023-04-12T02:28:28;2.00;;;1.30;;
70588;SDS011;58152;49.202;18.744;2023-04-12T02:31:06;2.35;;;1.38;;
70588;SDS011;58152;49.202;18.744;2023-04-12T02:33:35;2.15;;;1.40;;
70588;SDS011;58152;49.202;18.744;2023-04-12T02:36:27;2.00;;;1.90;;
70588;SDS011;58152;49.202;18.744;2023-04-12T02:39:07;2.42;;;1.60;;
70588;SDS011;58152;49.202;18.744;2023-04-12T02:41:56;1.88;;;1.70;;
70588;SDS011;58152;49.202;18.744;2023-04-12T02:44:28;2.33;;;1.60;;
70588;SDS011;58152;49.202;18.744;2023-04-12T02:47:05;1.58;;;1.42;;
70588;SDS011;58152;49.202;18.744;2023-04-12T02:49:44;2.00;;;1.67;;
70588;SDS011;58152;49.202;18.744;2023-04-12T02:52:41;2.97;;;1.50;;
70588;SDS011;58152;49.202;18.744;2023-04-12T02:55:10;5.55;;;2.22;;
70588;SDS011;58152;49.202;18.744;2023-04-12T03:00:30;3.53;;;2.58;;
70588;SDS011;58152;49.202;18.744;2023-04-12T03:03:28;3.30;;;2.95;;
70588;SDS011;58152;49.202;18.744;2023-04-12T03:06:01;5.10;;;3.72;;
70588;SDS011;58152;49.202;18.744;2023-04-12T03:08:40;4.55;;;3.85;;
70588;SDS011;58152;49.202;18.744;2023-04-12T03:11:39;5.75;;;4.50;;
70588;SDS011;58152;49.202;18.744;2023-04-12T03:14:40;5.07;;;3.83;;
70588;SDS011;58152;49.202;18.744;2023-04-12T03:17:41;3.75;;;3.33;;
70588;SDS011;58152;49.202;18.744;2023-04-12T03:20:25;3.70;;;3.30;;
70588;SDS011;58152;49.202;18.744;2023-04-12T03:23:05;2.88;;;2.65;;
70588;SDS011;58152;49.202;18.744;2023-04-12T03:25:37;4.50;;;2.53;;
70588;SDS011;58152;49.202;18.744;2023-04-12T03:28:15;3.55;;;2.70;;
70588;SDS011;58152;49.202;18.744;2023-04-12T03:31:01;4.40;;;3.28;;
70588;SDS011;58152;49.202;18.744;2023-04-12T03:33:49;3.15;;;2.85;;
70588;SDS011;58152;49.202;18.744;2023-04-12T03:36:19;3.83;;;2.90;;
70588;SDS011;58152;49.202;18.744;2023-04-12T03:39:16;3.90;;;2.88;;
70588;SDS011;58152;49.202;18.744;2023-04-12T03:41:50;3.08;;;2.75;;
70588;SDS011;58152;49.202;18.744;2023-04-12T03:44:39;2.80;;;2.60;;
70588;SDS011;58152;49.202;18.744;2023-04-12T03:47:30;3.17;;;2.20;;
70588;SDS011;58152;49.202;18.744;2023-04-12T03:52:45;3.27;;;2.43;;
70588;SDS011;58152;49.202;18.744;2023-04-12T03:55:19;3.92;;;2.53;;
70588;SDS011;58152;49.202;18.744;2023-04-12T03:57:48;3.28;;;2.30;;
70588;SDS011;58152;49.202;18.744;2023-04-12T04:00:24;2.78;;;2.22;;
70588;SDS011;58152;49.202;18.744;2023-04-12T04:02:59;3.90;;;2.90;;
70588;SDS011;58152;49.202;18.744;2023-04-12T04:05:53;2.95;;;2.75;;
70588;SDS011;58152;49.202;18.744;2023-04-12T04:08:21;3.03;;;2.58;;
70588;SDS011;58152;49.202;18.744;2023-04-12T04:11:08;3.75;;;2.53;;
70588;SDS011;58152;49.202;18.744;2023-04-12T04:17:01;2.38;;;2.15;;
70588;SDS011;58152;49.202;18.744;2023-04-12T04:19:27;4.35;;;3.13;;
70588;SDS011;58152;49.202;18.744;2023-04-12T04:21:52;3.10;;;2.80;;
70588;SDS011;58152;49.202;18.744;2023-04-12T04:24:23;3.17;;;2.63;;
70588;SDS011;58152;49.202;18.744;2023-04-12T04:26:50;3.17;;;2.85;;
70588;SDS011;58152;49.202;18.744;2023-04-12T04:29:18;2.85;;;2.55;;
70588;SDS011;58152;49.202;18.744;2023-04-12T04:31:45;2.67;;;2.47;;
70588;SDS011;58152;49.202;18.744;2023-04-12T04:34:14;3.22;;;2.40;;
70588;SDS011;58152;49.202;18.744;2023-04-12T04:36:40;4.43;;;3.15;;
70588;SDS011;58152;49.202;18.744;2023-04-12T04:39:06;3.38;;;2.88;;
70588;SDS011;58152;49.202;18.744;2023-04-12T04:41:31;4.13;;;2.97;;
70588;SDS011;58152;49.202;18.744;2023-04-12T04:43:58;4.13;;;2.70;;
70588;SDS011;58152;49.202;18.744;2023-04-12T04:46:25;3.45;;;2.75;;
70588;SDS011;58152;49.202;18.744;2023-04-12T04:48:54;3.92;;;3.53;;
70588;SDS011;58152;49.202;18.744;2023-04-12T04:51:20;4.20;;;2.88;;
70588;SDS011;58152;49.202;18.744;2023-04-12T04:53:46;4.03;;;3.08;;
70588;SDS011;58152;49.202;18.744;2023-04-12T04:56:12;4.35;;;3.90;;
70588;SDS011;58152;49.202;18.744;2023-04-12T04:58:37;5.53;;;4.10;;
70588;SDS011;58152;49.202;18.744;2023-04-12T05:01:02;4.82;;;3.90;;
70588;SDS011;58152;49.202;18.744;2023-04-12T05:03:29;4.40;;;3.72;;
70588;SDS011;58152;49.202;18.744;2023-04-12T05:05:55;5.25;;;3.60;;
70588;SDS011;58152;49.202;18.744;2023-04-12T05:08:20;4.60;;;4.05;;
70588;SDS011;58152;49.202;18.744;2023-04-12T05:10:54;6.55;;;4.68;;
70588;SDS011;58152;49.202;18.744;2023-04-12T05:13:20;4.75;;;3.90;;
70588;SDS011;58152;49.202;18.744;2023-04-12T05:15:47;5.70;;;4.53;;
70588;SDS011;58152;49.202;18.744;2023-04-12T05:18:13;5.13;;;4.30;;
70588;SDS011;58152;49.202;18.744;2023-04-12T05:20:39;5.53;;;4.38;;
70588;SDS011;58152;49.202;18.744;2023-04-12T05:23:05;4.65;;;3.92;;
70588;SDS011;58152;49.202;18.744;2023-04-12T05:25:31;3.95;;;3.55;;
70588;SDS011;58152;49.202;18.744;2023-04-12T05:27:57;6.55;;;4.82;;
70588;SDS011;58152;49.202;18.744;2023-04-12T05:30:23;7.60;;;4.97;;
70588;SDS011;58152;49.202;18.744;2023-04-12T05:32:48;6.80;;;5.35;;
70588;SDS011;58152;49.202;18.744;2023-04-12T05:35:14;6.78;;;4.93;;
70588;SDS011;58152;49.202;18.744;2023-04-12T05:37:39;7.93;;;4.10;;
70588;SDS011;58152;49.202;18.744;2023-04-12T05:40:05;7.47;;;4.22;;
70588;SDS011;58152;49.202;18.744;2023-04-12T05:42:31;6.55;;;4.50;;
70588;SDS011;58152;49.202;18.744;2023-04-12T05:44:57;5.10;;;4.50;;
70588;SDS011;58152;49.202;18.744;2023-04-12T05:47:22;5.88;;;4.68;;
70588;SDS011;58152;49.202;18.744;2023-04-12T05:49:48;5.93;;;3.90;;
70588;SDS011;58152;49.202;18.744;2023-04-12T05:52:13;4.50;;;4.10;;
70588;SDS011;58152;49.202;18.744;2023-04-12T05:54:38;4.80;;;3.83;;
70588;SDS011;58152;49.202;18.744;2023-04-12T05:57:04;4.95;;;4.07;;
70588;SDS011;58152;49.202;18.744;2023-04-12T05:59:29;4.95;;;4.45;;
70588;SDS011;58152;49.202;18.744;2023-04-12T06:01:55;4.53;;;4.13;;
70588;SDS011;58152;49.202;18.744;2023-04-12T06:04:20;5.55;;;3.53;;
70588;SDS011;58152;49.202;18.744;2023-04-12T06:06:46;5.30;;;4.47;;
70588;SDS011;58152;49.202;18.744;2023-04-12T06:09:12;4.47;;;4.07;;
70588;SDS011;58152;49.202;18.744;2023-04-12T06:11:38;5.35;;;4.10;;
70588;SDS011;58152;49.202;18.744;2023-04-12T06:14:04;5.32;;;4.35;;
70588;SDS011;58152;49.202;18.744;2023-04-12T06:16:32;4.35;;;3.95;;
70588;SDS011;58152;49.202;18.744;2023-04-12T06:18:58;7.50;;;5.13;;
70588;SDS011;58152;49.202;18.744;2023-04-12T06:21:23;5.78;;;4.82;;
70588;SDS011;58152;49.202;18.744;2023-04-12T06:23:49;5.57;;;3.92;;
70588;SDS011;58152;49.202;18.744;2023-04-12T06:26:15;4.85;;;4.35;;
70588;SDS011;58152;49.202;18.744;2023-04-12T06:28:40;8.68;;;4.75;;
70588;SDS011;58152;49.202;18.744;2023-04-12T06:31:05;6.05;;;5.07;;
70588;SDS011;58152;49.202;18.744;2023-04-12T06:33:31;5.32;;;4.25;;
70588;SDS011;58152;49.202;18.744;2023-04-12T06:35:57;5.40;;;3.55;;
70588;SDS011;58152;49.202;18.744;2023-04-12T06:38:22;4.38;;;3.72;;
70588;SDS011;58152;49.202;18.744;2023-04-12T06:40:48;4.15;;;3.60;;
70588;SDS011;58152;49.202;18.744;2023-04-12T06:43:16;5.45;;;3.75;;
70588;SDS011;58152;49.202;18.744;2023-04-12T06:45:46;4.10;;;3.70;;
70588;SDS011;58152;49.202;18.744;2023-04-12T06:48:13;4.65;;;3.72;;
70588;SDS011;58152;49.202;18.744;2023-04-12T06:50:39;3.53;;;3.22;;
70588;SDS011;58152;49.202;18.744;2023-04-12T06:53:05;7.28;;;4.28;;
70588;SDS011;58152;49.202;18.744;2023-04-12T06:55:30;3.85;;;3.50;;
70588;SDS011;58152;49.202;18.744;2023-04-12T06:57:56;4.65;;;3.92;;
70588;SDS011;58152;49.202;18.744;2023-04-12T07:00:24;30.60;;;24.85;;
70588;SDS011;58152;49.202;18.744;2023-04-12T07:02:50;33.33;;;26.70;;
70588;SDS011;58152;49.202;18.744;2023-04-12T07:05:15;86.72;;;61.42;;
70588;SDS011;58152;49.202;18.744;2023-04-12T07:07:41;47.55;;;31.88;;
70588;SDS011;58152;49.202;18.744;2023-04-12T07:10:11;23.30;;;16.30;;
70588;SDS011;58152;49.202;18.744;2023-04-12T07:12:37;13.65;;;9.80;;
70588;SDS011;58152;49.202;18.744;2023-04-12T07:15:02;9.07;;;7.45;;
70588;SDS011;58152;49.202;18.744;2023-04-12T07:17:28;6.85;;;6.15;;
70588;SDS011;58152;49.202;18.744;2023-04-12T07:19:53;5.10;;;4.57;;
70588;SDS011;58152;49.202;18.744;2023-04-12T07:22:19;5.43;;;4.30;;
70588;SDS011;58152;49.202;18.744;2023-04-12T07:24:45;4.50;;;4.10;;
70588;SDS011;58152;49.202;18.744;2023-04-12T07:27:10;3.60;;;3.30;;
70588;SDS011;58152;49.202;18.744;2023-04-12T07:29:36;4.18;;;3.25;;
70588;SDS011;58152;49.202;18.744;2023-04-12T07:32:01;3.08;;;2.72;;
70588;SDS011;58152;49.202;18.744;2023-04-12T07:34:28;3.17;;;2.90;;
70588;SDS011;58152;49.202;18.744;2023-04-12T07:36:54;3.45;;;2.75;;
70588;SDS011;58152;49.202;18.744;2023-04-12T07:39:20;3.88;;;2.72;;
70588;SDS011;58152;49.202;18.744;2023-04-12T07:41:46;2.95;;;2.72;;
70588;SDS011;58152;49.202;18.744;2023-04-12T07:44:13;3.72;;;2.55;;
70588;SDS011;58152;49.202;18.744;2023-04-12T07:46:39;3.65;;;3.00;;
70588;SDS011;58152;49.202;18.744;2023-04-12T07:49:06;3.45;;;2.85;;
70588;SDS011;58152;49.202;18.744;2023-04-12T07:51:31;4.53;;;2.72;;
70588;SDS011;58152;49.202;18.744;2023-04-12T07:53:57;2.50;;;2.30;;
70588;SDS011;58152;49.202;18.744;2023-04-12T07:56:22;2.55;;;2.28;;
70588;SDS011;58152;49.202;18.744;2023-04-12T07:58:48;2.50;;;2.08;;
70588;SDS011;58152;49.202;18.744;2023-04-12T08:01:14;3.17;;;2.30;;
70588;SDS011;58152;49.202;18.744;2023-04-12T08:03:40;3.05;;;2.20;;
70588;SDS011;58152;49.202;18.744;2023-04-12T08:06:05;2.85;;;2.40;;
70588;SDS011;58152;49.202;18.744;2023-04-12T08:08:31;2.85;;;2.05;;
70588;SDS011;58152;49.202;18.744;2023-04-12T08:10:57;3.00;;;2.03;;
70588;SDS011;58152;49.202;18.744;2023-04-12T08:13:22;2.58;;;2.10;;
70588;SDS011;58152;49.202;18.744;2023-04-12T08:15:51;2.13;;;2.00;;
70588;SDS011;58152;49.202;18.744;2023-04-12T08:18:19;4.03;;;2.47;;
70588;SDS011;58152;49.202;18.744;2023-04-12T08:20:45;2.13;;;1.90;;
70588;SDS011;58152;49.202;18.744;2023-04-12T08:23:13;4.68;;;2.47;;
70588;SDS011;58152;49.202;18.744;2023-04-12T08:25:39;3.03;;;2.72;;
70588;SDS011;58152;49.202;18.744;2023-04-12T08:28:08;2.60;;;2.40;;
70588;SDS011;58152;49.202;18.744;2023-04-12T08:30:34;2.60;;;2.30;;
70588;SDS011;58152;49.202;18.744;2023-04-12T08:32:59;3.13;;;2.58;;
70588;SDS011;58152;49.202;18.744;2023-04-12T08:35:25;4.45;;;2.80;;
70588;SDS011;58152;49.202;18.744;2023-04-12T08:37:51;3.42;;;2.05;;
70588;SDS011;58152;49.202;18.744;2023-04-12T08:40:16;2.40;;;2.20;;
70588;SDS011;58152;49.202;18.744;2023-04-12T08:42:42;3.40;;;2.25;;
70588;SDS011;58152;49.202;18.744;2023-04-12T08:45:08;2.67;;;2.17;;
70588;SDS011;58152;49.202;18.744;2023-04-12T08:47:37;2.92;;;2.25;;
70588;SDS011;58152;49.202;18.744;2023-04-12T08:50:08;2.17;;;1.98;;
70588;SDS011;58152;49.202;18.744;2023-04-12T08:52:37;2.80;;;2.00;;
70588;SDS011;58152;49.202;18.744;2023-04-12T08:55:03;2.63;;;2.25;;
70588;SDS011;58152;49.202;18.744;2023-04-12T08:57:29;3.53;;;3.00;;
70588;SDS011;58152;49.202;18.744;2023-04-12T08:59:56;2.83;;;2.55;;
70588;SDS011;58152;49.202;18.744;2023-04-12T09:02:24;2.83;;;2.55;;
70588;SDS011;58152;49.202;18.744;2023-04-12T09:04:50;2.97;;;2.67;;
70588;SDS011;58152;49.202;18.744;2023-04-12T09:07:17;4.82;;;2.75;;
70588;SDS011;58152;49.202;18.744;2023-04-12T09:09:43;4.90;;;3.20;;
70588;SDS011;58152;49.202;18.744;2023-04-12T09:12:10;3.28;;;2.80;;
70588;SDS011;58152;49.202;18.744;2023-04-12T09:14:37;2.30;;;2.03;;
70588;SDS011;58152;49.202;18.744;2023-04-12T09:17:04;3.47;;;2.30;;
70588;SDS011;58152;49.202;18.744;2023-04-12T09:19:45;2.55;;;2.35;;
70588;SDS011;58152;49.202;18.744;2023-04-12T09:22:10;2.25;;;2.05;;
70588;SDS011;58152;49.202;18.744;2023-04-12T09:24:49;3.97;;;2.50;;
70588;SDS011;58152;49.202;18.744;2023-04-12T09:27:17;2.22;;;1.95;;
70588;SDS011;58152;49.202;18.744;2023-04-12T09:29:46;2.60;;;2.40;;
70588;SDS011;58152;49.202;18.744;2023-04-12T09:32:16;3.10;;;2.38;;
70588;SDS011;58152;49.202;18.744;2023-04-12T09:34:53;2.80;;;2.40;;
70588;SDS011;58152;49.202;18.744;2023-04-12T09:37:21;2.45;;;2.10;;
70588;SDS011;58152;49.202;18.744;2023-04-12T09:39:47;3.97;;;3.30;;
70588;SDS011;58152;49.202;18.744;2023-04-12T09:42:22;3.30;;;3.00;;
70588;SDS011;58152;49.202;18.744;2023-04-12T09:44:47;3.22;;;2.92;;
70588;SDS011;58152;49.202;18.744;2023-04-12T09:47:13;3.47;;;3.00;;
70588;SDS011;58152;49.202;18.744;2023-04-12T09:49:39;3.83;;;3.20;;
70588;SDS011;58152;49.202;18.744;2023-04-12T09:52:06;3.38;;;3.00;;
70588;SDS011;58152;49.202;18.744;2023-04-12T09:54:36;4.20;;;2.70;;
70588;SDS011;58152;49.202;18.744;2023-04-12T09:57:05;3.13;;;2.65;;
70588;SDS011;58152;49.202;18.744;2023-04-12T09:59:32;2.40;;;2.20;;
70588;SDS011;58152;49.202;18.744;2023-04-12T10:02:07;3.75;;;2.83;;
70588;SDS011;58152;49.202;18.744;2023-04-12T10:04:38;3.20;;;2.90;;
70588;SDS011;58152;49.202;18.744;2023-04-12T10:07:05;3.03;;;2.28;;
70588;SDS011;58152;49.202;18.744;2023-04-12T10:09:31;3.72;;;2.75;;
70588;SDS011;58152;49.202;18.744;2023-04-12T10:11:58;2.15;;;1.90;;
70588;SDS011;58152;49.202;18.744;2023-04-12T10:14:29;3.00;;;2.40;;
70588;SDS011;58152;49.202;18.744;2023-04-12T10:16:56;2.35;;;2.00;;
70588;SDS011;58152;49.202;18.744;2023-04-12T10:19:26;3.45;;;2.10;;
70588;SDS011;58152;49.202;18.744;2023-04-12T10:21:53;3.63;;;2.28;;
70588;SDS011;58152;49.202;18.744;2023-04-12T10:24:22;3.33;;;2.25;;
70588;SDS011;58152;49.202;18.744;2023-04-12T10:26:49;2.67;;;2.47;;
70588;SDS011;58152;49.202;18.744;2023-04-12T10:31:54;3.17;;;2.88;;
70588;SDS011;58152;49.202;18.744;2023-04-12T10:34:27;2.53;;;2.20;;
70588;SDS011;58152;49.202;18.744;2023-04-12T10:36:58;4.53;;;2.65;;
70588;SDS011;58152;49.202;18.744;2023-04-12T10:39:41;4.15;;;2.67;;
70588;SDS011;58152;49.202;18.744;2023-04-12T10:42:15;2.78;;;2.28;;
70588;SDS011;58152;49.202;18.744;2023-04-12T10:44:46;6.40;;;3.03;;
70588;SDS011;58152;49.202;18.744;2023-04-12T10:47:11;4.13;;;2.65;;
70588;SDS011;58152;49.202;18.744;2023-04-12T10:49:37;3.08;;;2.78;;
70588;SDS011;58152;49.202;18.744;2023-04-12T10:52:13;2.95;;;2.65;;
70588;SDS011;58152;49.202;18.744;2023-04-12T10:54:38;4.03;;;2.70;;
70588;SDS011;58152;49.202;18.744;2023-04-12T10:57:06;2.97;;;2.40;;
70588;SDS011;58152;49.202;18.744;2023-04-12T10:59:51;2.47;;;2.28;;
70588;SDS011;58152;49.202;18.744;2023-04-12T11:02:23;1.90;;;1.80;;
70588;SDS011;58152;49.202;18.744;2023-04-12T11:05:05;2.40;;;2.15;;
70588;SDS011;58152;49.202;18.744;2023-04-12T11:07:41;3.38;;;2.42;;
70588;SDS011;58152;49.202;18.744;2023-04-12T11:10:14;2.88;;;1.98;;
70588;SDS011;58152;49.202;18.744;2023-04-12T11:12:41;3.13;;;2.42;;
70588;SDS011;58152;49.202;18.744;2023-04-12T11:15:13;3.83;;;2.67;;
70588;SDS011;58152;49.202;18.744;2023-04-12T11:17:38;3.25;;;2.67;;
70588;SDS011;58152;49.202;18.744;2023-04-12T11:20:04;3.25;;;2.35;;
70588;SDS011;58152;49.202;18.744;2023-04-12T11:22:35;2.30;;;2.10;;
70588;SDS011;58152;49.202;18.744;2023-04-12T11:25:02;2.50;;;2.30;;
70588;SDS011;58152;49.202;18.744;2023-04-12T11:27:28;2.88;;;2.67;;
70588;SDS011;58152;49.202;18.744;2023-04-12T11:29:56;2.50;;;2.30;;
70588;SDS011;58152;49.202;18.744;2023-04-12T11:32:24;2.75;;;2.45;;
70588;SDS011;58152;49.202;18.744;2023-04-12T11:34:52;3.17;;;2.53;;
70588;SDS011;58152;49.202;18.744;2023-04-12T11:37:19;2.20;;;2.00;;
70588;SDS011;58152;49.202;18.744;2023-04-12T11:39:45;3.08;;;2.78;;
70588;SDS011;58152;49.202;18.744;2023-04-12T11:42:13;2.75;;;2.08;;
70588;SDS011;58152;49.202;18.744;2023-04-12T11:44:41;2.85;;;2.28;;
70588;SDS011;58152;49.202;18.744;2023-04-12T11:47:41;3.53;;;2.20;;
70588;SDS011;58152;49.202;18.744;2023-04-12T11:50:00;2.45;;;1.70;;
70588;SDS011;58152;49.202;18.744;2023-04-12T11:52:29;3.30;;;2.13;;
70588;SDS011;58152;49.202;18.744;2023-04-12T11:54:58;3.40;;;2.70;;
70588;SDS011;58152;49.202;18.744;2023-04-12T11:57:25;3.50;;;2.00;;
70588;SDS011;58152;49.202;18.744;2023-04-12T11:59:52;1.73;;;1.63;;
70588;SDS011;58152;49.202;18.744;2023-04-12T12:02:21;3.72;;;1.98;;
70588;SDS011;58152;49.202;18.744;2023-04-12T12:04:47;2.63;;;1.73;;
70588;SDS011;58152;49.202;18.744;2023-04-12T12:07:14;1.30;;;1.20;;
70588;SDS011;58152;49.202;18.744;2023-04-12T12:09:42;2.47;;;2.22;;
70588;SDS011;58152;49.202;18.744;2023-04-12T12:12:09;2.85;;;1.85;;
70588;SDS011;58152;49.202;18.744;2023-04-12T12:14:35;2.22;;;1.58;;
70588;SDS011;58152;49.202;18.744;2023-04-12T12:17:01;3.10;;;1.63;;
70588;SDS011;58152;49.202;18.744;2023-04-12T12:19:41;2.67;;;1.65;;
70588;SDS011;58152;49.202;18.744;2023-04-12T12:24:44;1.85;;;1.40;;
70588;SDS011;58152;49.202;18.744;2023-04-12T12:27:11;2.15;;;1.35;;
70588;SDS011;58152;49.202;18.744;2023-04-12T12:29:37;2.10;;;1.63;;
70588;SDS011;58152;49.202;18.744;2023-04-12T12:32:09;2.20;;;1.33;;
70588;SDS011;58152;49.202;18.744;2023-04-12T12:34:39;3.38;;;1.63;;
70588;SDS011;58152;49.202;18.744;2023-04-12T12:37:11;2.47;;;1.35;;
70588;SDS011;58152;49.202;18.744;2023-04-12T12:39:37;1.95;;;1.40;;
70588;SDS011;58152;49.202;18.744;2023-04-12T12:42:03;1.77;;;1.20;;
70588;SDS011;58152;49.202;18.744;2023-04-12T12:44:30;2.05;;;1.48;;
70588;SDS011;58152;49.202;18.744;2023-04-12T12:46:57;1.63;;;1.10;;
70588;SDS011;58152;49.202;18.744;2023-04-12T12:49:23;5.03;;;1.42;;
70588;SDS011;58152;49.202;18.744;2023-04-12T12:51:49;1.40;;;0.90;;
70588;SDS011;58152;49.202;18.744;2023-04-12T12:54:15;3.17;;;1.50;;
70588;SDS011;58152;49.202;18.744;2023-04-12T12:56:40;1.33;;;1.20;;
70588;SDS011;58152;49.202;18.744;2023-04-12T12:59:06;3.17;;;1.40;;
70588;SDS011;58152;49.202;18.744;2023-04-12T13:01:31;1.75;;;1.13;;
70588;SDS011;58152;49.202;18.744;2023-04-12T13:03:57;1.58;;;1.00;;
70588;SDS011;58152;49.202;18.744;2023-04-12T13:06:22;1.50;;;1.08;;
70588;SDS011;58152;49.202;18.744;2023-04-12T13:08:49;3.53;;;1.30;;
70588;SDS011;58152;49.202;18.744;2023-04-12T13:11:16;2.05;;;1.10;;
70588;SDS011;58152;49.202;18.744;2023-04-12T13:13:41;2.45;;;1.00;;
70588;SDS011;58152;49.202;18.744;2023-04-12T13:16:07;1.85;;;0.88;;
70588;SDS011;58152;49.202;18.744;2023-04-12T13:18:32;0.93;;;0.93;;
70588;SDS011;58152;49.202;18.744;2023-04-12T13:20:57;2.05;;;1.50;;
70588;SDS011;58152;49.202;18.744;2023-04-12T13:23:23;3.58;;;1.42;;
70588;SDS011;58152;49.202;18.744;2023-04-12T13:25:49;2.28;;;1.10;;
70588;SDS011;58152;49.202;18.744;2023-04-12T13:28:17;1.27;;;1.10;;
70588;SDS011;58152;49.202;18.744;2023-04-12T13:30:42;1.40;;;0.80;;
70588;SDS011;58152;49.202;18.744;2023-04-12T13:33:08;1.08;;;0.80;;
70588;SDS011;58152;49.202;18.744;2023-04-12T13:35:33;1.00;;;0.90;;
70588;SDS011;58152;49.202;18.744;2023-04-12T13:37:58;1.10;;;0.70;;
70588;SDS011;58152;49.202;18.744;2023-04-12T13:40:24;1.83;;;1.33;;
70588;SDS011;58152;49.202;18.744;2023-04-12T13:42:49;1.50;;;1.00;;
70588;SDS011;58152;49.202;18.744;2023-04-12T13:45:15;1.20;;;0.90;;
70588;SDS011;58152;49.202;18.744;2023-04-12T13:47:40;1.67;;;1.30;;
70588;SDS011;58152;49.202;18.744;2023-04-12T13:50:06;1.02;;;0.93;;
70588;SDS011;58152;49.202;18.744;2023-04-12T13:52:32;1.67;;;1.50;;
70588;SDS011;58152;49.202;18.744;2023-04-12T13:54:57;2.35;;;1.00;;
70588;SDS011;58152;49.202;18.744;2023-04-12T13:57:23;1.02;;;0.65;;
70588;SDS011;58152;49.202;18.744;2023-04-12T13:59:49;1.17;;;0.80;;
70588;SDS011;58152;49.202;18.744;2023-04-12T14:02:14;1.88;;;0.90;;
70588;SDS011;58152;49.202;18.744;2023-04-12T14:04:50;0.70;;;0.70;;
70588;SDS011;58152;49.202;18.744;2023-04-12T14:07:17;3.25;;;0.95;;
70588;SDS011;58152;49.202;18.744;2023-04-12T14:09:42;1.02;;;0.75;;
70588;SDS011;58152;49.202;18.744;2023-04-12T14:12:08;1.58;;;0.82;;
70588;SDS011;58152;49.202;18.744;2023-04-12T14:14:33;1.50;;;0.65;;
70588;SDS011;58152;49.202;18.744;2023-04-12T14:17:01;1.63;;;0.73;;
70588;SDS011;58152;49.202;18.744;2023-04-12T14:19:27;1.92;;;0.82;;
70588;SDS011;58152;49.202;18.744;2023-04-12T14:21:57;2.75;;;0.90;;
70588;SDS011;58152;49.202;18.744;2023-04-12T14:24:23;1.58;;;0.95;;
70588;SDS011;58152;49.202;18.744;2023-04-12T14:26:50;1.30;;;0.65;;
70588;SDS011;58152;49.202;18.744;2023-04-12T14:29:16;2.15;;;0.75;;
70588;SDS011;58152;49.202;18.744;2023-04-12T14:31:41;1.27;;;0.80;;
70588;SDS011;58152;49.202;18.744;2023-04-12T14:34:07;2.72;;;1.08;;
70588;SDS011;58152;49.202;18.744;2023-04-12T14:36:34;1.42;;;0.82;;
70588;SDS011;58152;49.202;18.744;2023-04-12T14:39:00;1.30;;;0.90;;
70588;SDS011;58152;49.202;18.744;2023-04-12T14:41:28;1.40;;;0.98;;
70588;SDS011;58152;49.202;18.744;2023-04-12T14:43:54;1.13;;;1.02;;
70588;SDS011;58152;49.202;18.744;2023-04-12T14:46:20;1.70;;;1.05;;
70588;SDS011;58152;49.202;18.744;2023-04-12T14:48:45;1.25;;;0.80;;
70588;SDS011;58152;49.202;18.744;2023-04-12T14:51:11;1.65;;;0.82;;
70588;SDS011;58152;49.202;18.744;2023-04-12T14:53:36;1.10;;;0.77;;
70588;SDS011;58152;49.202;18.744;2023-04-12T14:56:02;1.73;;;1.00;;
70588;SDS011;58152;49.202;18.744;2023-04-12T14:58:28;1.00;;;0.90;;
70588;SDS011;58152;49.202;18.744;2023-04-12T15:00:56;38.85;;;30.65;;
70588;SDS011;58152;49.202;18.744;2023-04-12T15:03:22;95.15;;;79.07;;
70588;SDS011;58152;49.202;18.744;2023-04-12T15:06:10;42.70;;;37.10;;
70588;SDS011;58152;49.202;18.744;2023-04-12T15:08:40;15.18;;;13.27;;
70588;SDS011;58152;49.202;18.744;2023-04-12T15:11:07;5.10;;;4.07;;
70588;SDS011;58152;49.202;18.744;2023-04-12T15:13:37;2.45;;;1.90;;
70588;SDS011;58152;49.202;18.744;2023-04-12T15:16:04;1.20;;;1.00;;
70588;SDS011;58152;49.202;18.744;2023-04-12T15:18:32;1.67;;;1.10;;
70588;SDS011;58152;49.202;18.744;2023-04-12T15:24:41;1.33;;;1.10;;
70588;SDS011;58152;49.202;18.744;2023-04-12T15:27:29;1.20;;;0.90;;
70588;SDS011;58152;49.202;18.744;2023-04-12T15:30:08;1.80;;;1.15;;
70588;SDS011;58152;49.202;18.744;2023-04-12T15:32:42;1.75;;;1.08;;
70588;SDS011;58152;49.202;18.744;2023-04-12T15:35:25;1.70;;;1.10;;
70588;SDS011;58152;49.202;18.744;2023-04-12T15:37:56;1.85;;;0.80;;
70588;SDS011;58152;49.202;18.744;2023-04-12T15:40:24;2.97;;;1.35;;